sensor_id;sensor_type;location;lat;lon;timestamp;temperature;humidity
27439;DHT22;14887;51.252;7.470;2023-05-07T00:02:02;13.50;99.90
27439;DHT22;14887;51.252;7.470;2023-05-07T00:04:29;13.50;99.90
27439;DHT22;14887;51.252;7.470;2023-05-07T00:07:01;13.50;99.90
27439;DHT22;14887;51.252;7.470;2023-05-07T00:09:26;13.50;99.90
27439;DHT22;14887;51.252;7.470;2023-05-07T00:11:52;13.60;99.90
27439;DHT22;14887;51.252;7.470;2023-05-07T00:14:18;13.50;55.50
27439;DHT22;14887;51.252;7.470;2023-05-07T00:16:43;13.50;1.00
27439;DHT22;14887;51.252;7.470;2023-05-07T00:19:09;13.50;29.10
27439;DHT22;14887;51.252;7.470;2023-05-07T00:21:34;13.60;24.30
27439;DHT22;14887;51.252;7.470;2023-05-07T00:24:00;13.60;18.20
27439;DHT22;14887;51.252;7.470;2023-05-07T00:26:26;13.50;1.00
27439;DHT22;14887;51.252;7.470;2023-05-07T00:28:51;13.50;1.00
27439;DHT22;14887;51.252;7.470;2023-05-07T00:31:17;13.60;1.00
27439;DHT22;14887;51.252;7.470;2023-05-07T00:33:42;13.40;1.00
27439;DHT22;14887;51.252;7.470;2023-05-07T00:36:08;13.40;1.00
27439;DHT22;14887;51.252;7.470;2023-05-07T00:38:34;13.40;1.00
27439;DHT22;14887;51.252;7.470;2023-05-07T00:40:59;13.40;1.00
27439;DHT22;14887;51.252;7.470;2023-05-07T00:43:25;13.40;1.00
27439;DHT22;14887;51.252;7.470;2023-05-07T00:45:51;13.40;5.00
27439;DHT22;14887;51.252;7.470;2023-05-07T00:48:16;13.40;1.00
27439;DHT22;14887;51.252;7.470;2023-05-07T00:50:42;13.30;8.20
27439;DHT22;14887;51.252;7.470;2023-05-07T00:53:08;13.30;19.30
27439;DHT22;14887;51.252;7.470;2023-05-07T00:55:35;13.40;97.40
27439;DHT22;14887;51.252;7.470;2023-05-07T00:58:01;13.20;96.20
27439;DHT22;14887;51.252;7.470;2023-05-07T01:00:26;13.20;99.90
27439;DHT22;14887;51.252;7.470;2023-05-07T01:02:52;13.20;99.90
27439;DHT22;14887;51.252;7.470;2023-05-07T01:05:19;13.20;99.90
27439;DHT22;14887;51.252;7.470;2023-05-07T01:07:45;13.20;99.90
27439;DHT22;14887;51.252;7.470;2023-05-07T01:10:12;13.10;99.90
27439;DHT22;14887;51.252;7.470;2023-05-07T01:12:39;13.10;99.90
27439;DHT22;14887;51.252;7.470;2023-05-07T01:15:06;13.10;99.90
27439;DHT22;14887;51.252;7.470;2023-05-07T01:17:35;13.10;99.90
27439;DHT22;14887;51.252;7.470;2023-05-07T01:20:01;13.10;99.90
27439;DHT22;14887;51.252;7.470;2023-05-07T01:22:37;13.10;99.90
27439;DHT22;14887;51.252;7.470;2023-05-07T01:25:04;12.90;99.90
27439;DHT22;14887;51.252;7.470;2023-05-07T01:27:30;12.90;99.90
27439;DHT22;14887;51.252;7.470;2023-05-07T01:29:55;12.70;99.90
27439;DHT22;14887;51.252;7.470;2023-05-07T01:32:35;12.60;99.90
27439;DHT22;14887;51.252;7.470;2023-05-07T01:35:03;12.60;99.90
27439;DHT22;14887;51.252;7.470;2023-05-07T01:37:32;12.50;99.90
27439;DHT22;14887;51.252;7.470;2023-05-07T01:39:57;12.40;99.90
27439;DHT22;14887;51.252;7.470;2023-05-07T01:42:23;12.30;99.90
27439;DHT22;14887;51.252;7.470;2023-05-07T01:44:49;12.30;99.90
27439;DHT22;14887;51.252;7.470;2023-05-07T01:47:16;12.30;99.90
27439;DHT22;14887;51.252;7.470;2023-05-07T01:49:42;12.30;99.90
27439;DHT22;14887;51.252;7.470;2023-05-07T01:52:09;12.30;99.90
27439;DHT22;14887;51.252;7.470;2023-05-07T01:54:35;12.40;99.90
27439;DHT22;14887;51.252;7.470;2023-05-07T01:57:01;12.30;99.90
27439;DHT22;14887;51.252;7.470;2023-05-07T01:59:26;12.30;99.90
27439;DHT22;14887;51.252;7.470;2023-05-07T02:01:52;12.20;99.90
27439;DHT22;14887;51.252;7.470;2023-05-07T02:04:18;12.30;99.90
27439;DHT22;14887;51.252;7.470;2023-05-07T02:06:43;12.30;99.90
27439;DHT22;14887;51.252;7.470;2023-05-07T02:09:09;12.30;99.90
27439;DHT22;14887;51.252;7.470;2023-05-07T02:11:35;12.20;99.90
27439;DHT22;14887;51.252;7.470;2023-05-07T02:14:00;12.30;99.90
27439;DHT22;14887;51.252;7.470;2023-05-07T02:16:26;12.20;99.90
27439;DHT22;14887;51.252;7.470;2023-05-07T02:18:51;12.20;99.90
27439;DHT22;14887;51.252;7.470;2023-05-07T02:21:17;12.30;99.90
27439;DHT22;14887;51.252;7.470;2023-05-07T02:23:43;12.30;99.90
27439;DHT22;14887;51.252;7.470;2023-05-07T02:26:08;12.20;99.90
27439;DHT22;14887;51.252;7.470;2023-05-07T02:28:34;12.30;99.90
27439;DHT22;14887;51.252;7.470;2023-05-07T02:31:03;12.20;99.90
27439;DHT22;14887;51.252;7.470;2023-05-07T02:33:29;12.30;99.90
27439;DHT22;14887;51.252;7.470;2023-05-07T02:35:55;12.30;99.90
27439;DHT22;14887;51.252;7.470;2023-05-07T02:38:20;12.30;99.90
27439;DHT22;14887;51.252;7.470;2023-05-07T02:40:46;12.30;99.90
27439;DHT22;14887;51.252;7.470;2023-05-07T02:43:11;12.40;99.90
27439;DHT22;14887;51.252;7.470;2023-05-07T02:45:37;12.40;99.90
27439;DHT22;14887;51.252;7.470;2023-05-07T02:48:03;12.40;99.90
27439;DHT22;14887;51.252;7.470;2023-05-07T02:50:29;12.40;99.90
27439;DHT22;14887;51.252;7.470;2023-05-07T02:52:54;12.50;99.90
27439;DHT22;14887;51.252;7.470;2023-05-07T02:55:20;12.40;99.90
27439;DHT22;14887;51.252;7.470;2023-05-07T02:57:46;12.40;99.90
27439;DHT22;14887;51.252;7.470;2023-05-07T03:00:18;12.40;99.90
27439;DHT22;14887;51.252;7.470;2023-05-07T03:02:45;12.40;99.90
27439;DHT22;14887;51.252;7.470;2023-05-07T03:05:11;12.40;99.90
27439;DHT22;14887;51.252;7.470;2023-05-07T03:07:38;12.30;99.90
27439;DHT22;14887;51.252;7.470;2023-05-07T03:10:04;12.30;99.90
27439;DHT22;14887;51.252;7.470;2023-05-07T03:12:30;12.30;99.90
27439;DHT22;14887;51.252;7.470;2023-05-07T03:14:56;12.40;99.90
27439;DHT22;14887;51.252;7.470;2023-05-07T03:17:22;12.30;99.90
27439;DHT22;14887;51.252;7.470;2023-05-07T03:19:48;12.30;99.90
27439;DHT22;14887;51.252;7.470;2023-05-07T03:22:13;12.30;99.90
27439;DHT22;14887;51.252;7.470;2023-05-07T03:24:39;12.40;99.90
27439;DHT22;14887;51.252;7.470;2023-05-07T03:27:04;12.40;99.90
27439;DHT22;14887;51.252;7.470;2023-05-07T03:29:30;12.40;99.90
27439;DHT22;14887;51.252;7.470;2023-05-07T03:31:55;12.30;99.90
27439;DHT22;14887;51.252;7.470;2023-05-07T03:34:21;12.40;99.90
27439;DHT22;14887;51.252;7.470;2023-05-07T03:36:50;12.40;99.90
27439;DHT22;14887;51.252;7.470;2023-05-07T03:39:15;12.40;99.90
27439;DHT22;14887;51.252;7.470;2023-05-07T03:41:41;12.40;99.90
27439;DHT22;14887;51.252;7.470;2023-05-07T03:44:07;12.40;99.90
27439;DHT22;14887;51.252;7.470;2023-05-07T03:46:33;12.40;99.90
27439;DHT22;14887;51.252;7.470;2023-05-07T03:48:59;12.40;99.90
27439;DHT22;14887;51.252;7.470;2023-05-07T03:51:25;12.40;99.90
27439;DHT22;14887;51.252;7.470;2023-05-07T03:53:51;12.50;99.90
27439;DHT22;14887;51.252;7.470;2023-05-07T03:56:20;12.40;99.90
27439;DHT22;14887;51.252;7.470;2023-05-07T03:58:47;12.40;99.90
27439;DHT22;14887;51.252;7.470;2023-05-07T04:01:12;12.40;99.90
27439;DHT22;14887;51.252;7.470;2023-05-07T04:03:38;12.40;99.90
27439;DHT22;14887;51.252;7.470;2023-05-07T04:06:03;12.50;99.90
27439;DHT22;14887;51.252;7.470;2023-05-07T04:08:29;12.40;99.90
27439;DHT22;14887;51.252;7.470;2023-05-07T04:10:56;12.50;99.90
27439;DHT22;14887;51.252;7.470;2023-05-07T04:13:22;12.50;99.90
27439;DHT22;14887;51.252;7.470;2023-05-07T04:15:47;12.50;99.90
27439;DHT22;14887;51.252;7.470;2023-05-07T04:18:14;12.50;99.90
27439;DHT22;14887;51.252;7.470;2023-05-07T04:20:40;12.50;99.90
27439;DHT22;14887;51.252;7.470;2023-05-07T04:23:05;12.60;99.90
27439;DHT22;14887;51.252;7.470;2023-05-07T04:25:32;12.50;96.30
27439;DHT22;14887;51.252;7.470;2023-05-07T04:27:58;12.60;90.60
27439;DHT22;14887;51.252;7.470;2023-05-07T04:30:24;12.60;75.80
27439;DHT22;14887;51.252;7.470;2023-05-07T04:32:49;12.60;50.80
27439;DHT22;14887;51.252;7.470;2023-05-07T04:35:15;12.60;47.40
27439;DHT22;14887;51.252;7.470;2023-05-07T04:37:41;12.60;20.00
27439;DHT22;14887;51.252;7.470;2023-05-07T04:40:07;12.60;19.50
27439;DHT22;14887;51.252;7.470;2023-05-07T04:42:32;12.60;76.30
27439;DHT22;14887;51.252;7.470;2023-05-07T04:44:58;12.70;23.40
27439;DHT22;14887;51.252;7.470;2023-05-07T04:47:23;12.80;1.00
27439;DHT22;14887;51.252;7.470;2023-05-07T04:49:49;12.80;1.00
27439;DHT22;14887;51.252;7.470;2023-05-07T04:52:14;12.90;1.00
27439;DHT22;14887;51.252;7.470;2023-05-07T04:54:40;12.90;1.00
27439;DHT22;14887;51.252;7.470;2023-05-07T04:57:06;13.00;1.00
27439;DHT22;14887;51.252;7.470;2023-05-07T04:59:32;13.00;1.00
27439;DHT22;14887;51.252;7.470;2023-05-07T05:01:58;13.10;1.00
27439;DHT22;14887;51.252;7.470;2023-05-07T05:04:23;13.20;1.00
27439;DHT22;14887;51.252;7.470;2023-05-07T05:06:49;13.20;1.00
27439;DHT22;14887;51.252;7.470;2023-05-07T05:09:15;13.30;1.00
27439;DHT22;14887;51.252;7.470;2023-05-07T05:11:41;13.30;1.00
27439;DHT22;14887;51.252;7.470;2023-05-07T05:14:07;13.50;1.00
27439;DHT22;14887;51.252;7.470;2023-05-07T05:16:32;13.60;1.00
27439;DHT22;14887;51.252;7.470;2023-05-07T05:18:58;13.70;99.90
27439;DHT22;14887;51.252;7.470;2023-05-07T05:21:23;13.80;99.90
27439;DHT22;14887;51.252;7.470;2023-05-07T05:23:49;13.90;1.00
27439;DHT22;14887;51.252;7.470;2023-05-07T05:26:15;14.00;1.00
27439;DHT22;14887;51.252;7.470;2023-05-07T05:28:41;14.00;1.00
27439;DHT22;14887;51.252;7.470;2023-05-07T05:31:06;14.10;1.00
27439;DHT22;14887;51.252;7.470;2023-05-07T05:33:32;14.10;1.00
27439;DHT22;14887;51.252;7.470;2023-05-07T05:35:57;14.10;99.90
27439;DHT22;14887;51.252;7.470;2023-05-07T05:38:23;14.30;99.90
27439;DHT22;14887;51.252;7.470;2023-05-07T05:40:48;14.10;99.90
27439;DHT22;14887;51.252;7.470;2023-05-07T05:43:14;14.20;99.90
27439;DHT22;14887;51.252;7.470;2023-05-07T05:45:40;14.20;96.90
27439;DHT22;14887;51.252;7.470;2023-05-07T05:48:05;14.20;29.60
27439;DHT22;14887;51.252;7.470;2023-05-07T05:50:31;14.20;1.00
27439;DHT22;14887;51.252;7.470;2023-05-07T05:52:57;14.20;22.80
27439;DHT22;14887;51.252;7.470;2023-05-07T05:55:23;14.20;99.90
27439;DHT22;14887;51.252;7.470;2023-05-07T05:57:49;14.40;99.90
27439;DHT22;14887;51.252;7.470;2023-05-07T06:00:16;14.50;99.90
27439;DHT22;14887;51.252;7.470;2023-05-07T06:02:41;14.80;1.00
27439;DHT22;14887;51.252;7.470;2023-05-07T06:05:08;14.90;1.00
27439;DHT22;14887;51.252;7.470;2023-05-07T06:07:34;15.00;99.90
27439;DHT22;14887;51.252;7.470;2023-05-07T06:10:00;15.30;99.90
27439;DHT22;14887;51.252;7.470;2023-05-07T06:12:26;15.60;99.90
27439;DHT22;14887;51.252;7.470;2023-05-07T06:14:52;15.90;1.00
27439;DHT22;14887;51.252;7.470;2023-05-07T06:17:17;16.00;1.00
27439;DHT22;14887;51.252;7.470;2023-05-07T06:19:43;16.30;1.00
27439;DHT22;14887;51.252;7.470;2023-05-07T06:22:09;16.50;99.90
27439;DHT22;14887;51.252;7.470;2023-05-07T06:24:35;16.70;99.90
27439;DHT22;14887;51.252;7.470;2023-05-07T06:27:00;16.80;99.90
27439;DHT22;14887;51.252;7.470;2023-05-07T06:29:26;17.10;1.00
27439;DHT22;14887;51.252;7.470;2023-05-07T06:31:53;17.30;1.00
27439;DHT22;14887;51.252;7.470;2023-05-07T06:34:19;17.40;99.90
27439;DHT22;14887;51.252;7.470;2023-05-07T06:36:44;17.70;1.00
27439;DHT22;14887;51.252;7.470;2023-05-07T06:39:10;18.10;1.00
27439;DHT22;14887;51.252;7.470;2023-05-07T06:41:35;18.20;1.00
27439;DHT22;14887;51.252;7.470;2023-05-07T06:44:04;18.30;1.00
27439;DHT22;14887;51.252;7.470;2023-05-07T06:46:30;18.30;92.30
27439;DHT22;14887;51.252;7.470;2023-05-07T06:48:56;18.20;99.90
27439;DHT22;14887;51.252;7.470;2023-05-07T06:51:22;18.00;99.90
27439;DHT22;14887;51.252;7.470;2023-05-07T06:53:47;18.20;99.90
27439;DHT22;14887;51.252;7.470;2023-05-07T06:56:13;18.20;99.90
27439;DHT22;14887;51.252;7.470;2023-05-07T06:58:38;18.20;1.00
27439;DHT22;14887;51.252;7.470;2023-05-07T07:01:07;18.10;99.90
27439;DHT22;14887;51.252;7.470;2023-05-07T07:03:33;18.40;99.90
27439;DHT22;14887;51.252;7.470;2023-05-07T07:05:58;18.40;99.90
27439;DHT22;14887;51.252;7.470;2023-05-07T07:08:24;18.60;1.00
27439;DHT22;14887;51.252;7.470;2023-05-07T07:10:50;18.40;1.00
27439;DHT22;14887;51.252;7.470;2023-05-07T07:13:15;18.60;99.90
27439;DHT22;14887;51.252;7.470;2023-05-07T07:15:41;18.70;48.50
27439;DHT22;14887;51.252;7.470;2023-05-07T07:18:06;19.10;1.00
27439;DHT22;14887;51.252;7.470;2023-05-07T07:20:32;19.20;1.00
27439;DHT22;14887;51.252;7.470;2023-05-07T07:22:58;19.30;99.90
27439;DHT22;14887;51.252;7.470;2023-05-07T07:25:23;19.50;1.00
27439;DHT22;14887;51.252;7.470;2023-05-07T07:27:49;19.70;99.90
27439;DHT22;14887;51.252;7.470;2023-05-07T07:30:15;19.60;99.90
27439;DHT22;14887;51.252;7.470;2023-05-07T07:32:40;19.90;99.90
27439;DHT22;14887;51.252;7.470;2023-05-07T07:35:07;20.10;99.90
27439;DHT22;14887;51.252;7.470;2023-05-07T07:37:32;20.50;99.90
27439;DHT22;14887;51.252;7.470;2023-05-07T07:39:58;21.00;95.10
27439;DHT22;14887;51.252;7.470;2023-05-07T07:42:23;21.00;1.00
27439;DHT22;14887;51.252;7.470;2023-05-07T07:44:49;21.10;1.00
27439;DHT22;14887;51.252;7.470;2023-05-07T07:47:15;21.70;1.00
27439;DHT22;14887;51.252;7.470;2023-05-07T07:49:41;22.30;1.00
27439;DHT22;14887;51.252;7.470;2023-05-07T07:52:06;23.20;1.00
27439;DHT22;14887;51.252;7.470;2023-05-07T07:54:32;24.00;1.00
27439;DHT22;14887;51.252;7.470;2023-05-07T07:56:57;25.00;99.90
27439;DHT22;14887;51.252;7.470;2023-05-07T07:59:23;25.90;99.90
27439;DHT22;14887;51.252;7.470;2023-05-07T08:01:49;26.40;99.90
27439;DHT22;14887;51.252;7.470;2023-05-07T08:04:15;26.30;99.90
27439;DHT22;14887;51.252;7.470;2023-05-07T08:06:41;26.10;99.90
27439;DHT22;14887;51.252;7.470;2023-05-07T08:09:07;26.10;99.90
27439;DHT22;14887;51.252;7.470;2023-05-07T08:11:33;25.90;99.90
27439;DHT22;14887;51.252;7.470;2023-05-07T08:13:59;26.30;99.90
27439;DHT22;14887;51.252;7.470;2023-05-07T08:16:25;26.00;99.90
27439;DHT22;14887;51.252;7.470;2023-05-07T08:18:51;25.00;99.90
27439;DHT22;14887;51.252;7.470;2023-05-07T08:21:16;24.60;99.90
27439;DHT22;14887;51.252;7.470;2023-05-07T08:23:42;24.30;99.90
27439;DHT22;14887;51.252;7.470;2023-05-07T08:26:08;24.20;99.90
27439;DHT22;14887;51.252;7.470;2023-05-07T08:28:33;24.10;99.90
27439;DHT22;14887;51.252;7.470;2023-05-07T08:30:59;24.00;99.90
27439;DHT22;14887;51.252;7.470;2023-05-07T08:33:26;23.90;99.90
27439;DHT22;14887;51.252;7.470;2023-05-07T08:35:52;24.20;99.90
27439;DHT22;14887;51.252;7.470;2023-05-07T08:38:17;24.60;99.90
27439;DHT22;14887;51.252;7.470;2023-05-07T08:40:43;24.60;99.90
27439;DHT22;14887;51.252;7.470;2023-05-07T08:43:08;24.40;99.90
27439;DHT22;14887;51.252;7.470;2023-05-07T08:45:39;24.60;99.90
27439;DHT22;14887;51.252;7.470;2023-05-07T08:48:09;24.70;99.90
27439;DHT22;14887;51.252;7.470;2023-05-07T08:50:38;25.40;99.90
27439;DHT22;14887;51.252;7.470;2023-05-07T08:53:04;26.30;99.90
27439;DHT22;14887;51.252;7.470;2023-05-07T08:55:30;27.10;99.90
27439;DHT22;14887;51.252;7.470;2023-05-07T08:57:56;27.80;99.90
27439;DHT22;14887;51.252;7.470;2023-05-07T09:00:22;28.10;99.90
27439;DHT22;14887;51.252;7.470;2023-05-07T09:02:47;28.50;99.90
27439;DHT22;14887;51.252;7.470;2023-05-07T09:05:13;29.00;99.90
27439;DHT22;14887;51.252;7.470;2023-05-07T09:07:39;29.80;99.90
27439;DHT22;14887;51.252;7.470;2023-05-07T09:10:05;30.40;99.90
27439;DHT22;14887;51.252;7.470;2023-05-07T09:12:31;30.50;99.90
27439;DHT22;14887;51.252;7.470;2023-05-07T09:14:58;30.20;99.90
27439;DHT22;14887;51.252;7.470;2023-05-07T09:17:24;30.30;99.90
27439;DHT22;14887;51.252;7.470;2023-05-07T09:19:50;29.70;99.90
27439;DHT22;14887;51.252;7.470;2023-05-07T09:22:16;28.20;99.90
27439;DHT22;14887;51.252;7.470;2023-05-07T09:24:48;26.40;99.90
27439;DHT22;14887;51.252;7.470;2023-05-07T09:27:13;25.40;99.90
27439;DHT22;14887;51.252;7.470;2023-05-07T09:29:39;24.60;99.90
27439;DHT22;14887;51.252;7.470;2023-05-07T09:32:06;23.80;99.90
27439;DHT22;14887;51.252;7.470;2023-05-07T09:34:32;23.40;99.90
27439;DHT22;14887;51.252;7.470;2023-05-07T09:37:01;23.20;99.90
27439;DHT22;14887;51.252;7.470;2023-05-07T09:39:41;23.20;99.90
27439;DHT22;14887;51.252;7.470;2023-05-07T09:42:08;23.20;99.90
27439;DHT22;14887;51.252;7.470;2023-05-07T09:44:35;22.90;99.90
27439;DHT22;14887;51.252;7.470;2023-05-07T09:47:03;22.80;99.90
27439;DHT22;14887;51.252;7.470;2023-05-07T09:49:30;22.40;99.90
27439;DHT22;14887;51.252;7.470;2023-05-07T09:52:00;22.20;99.90
27439;DHT22;14887;51.252;7.470;2023-05-07T09:54:26;22.10;99.90
27439;DHT22;14887;51.252;7.470;2023-05-07T09:56:54;21.90;99.90
27439;DHT22;14887;51.252;7.470;2023-05-07T09:59:21;21.80;99.90
27439;DHT22;14887;51.252;7.470;2023-05-07T10:01:48;22.20;99.90
27439;DHT22;14887;51.252;7.470;2023-05-07T10:04:14;22.50;99.90
27439;DHT22;14887;51.252;7.470;2023-05-07T10:06:40;22.90;99.90
27439;DHT22;14887;51.252;7.470;2023-05-07T10:09:07;23.40;99.90
27439;DHT22;14887;51.252;7.470;2023-05-07T10:11:33;23.80;99.90
27439;DHT22;14887;51.252;7.470;2023-05-07T10:13:59;24.00;99.90
27439;DHT22;14887;51.252;7.470;2023-05-07T10:16:33;24.00;99.90
27439;DHT22;14887;51.252;7.470;2023-05-07T10:19:03;23.80;99.90
27439;DHT22;14887;51.252;7.470;2023-05-07T10:21:29;23.80;99.90
27439;DHT22;14887;51.252;7.470;2023-05-07T10:24:00;23.70;99.90
27439;DHT22;14887;51.252;7.470;2023-05-07T10:26:29;23.40;99.90
27439;DHT22;14887;51.252;7.470;2023-05-07T10:29:01;24.00;99.90
27439;DHT22;14887;51.252;7.470;2023-05-07T10:31:55;24.40;99.90
27439;DHT22;14887;51.252;7.470;2023-05-07T10:34:28;24.30;99.90
27439;DHT22;14887;51.252;7.470;2023-05-07T10:36:55;24.60;99.90
27439;DHT22;14887;51.252;7.470;2023-05-07T10:39:22;24.60;99.90
27439;DHT22;14887;51.252;7.470;2023-05-07T10:41:48;24.40;99.90
27439;DHT22;14887;51.252;7.470;2023-05-07T10:44:28;24.40;99.90
27439;DHT22;14887;51.252;7.470;2023-05-07T10:47:10;24.20;99.90
27439;DHT22;14887;51.252;7.470;2023-05-07T10:50:22;24.10;99.90
27439;DHT22;14887;51.252;7.470;2023-05-07T10:52:23;23.90;99.90
27439;DHT22;14887;51.252;7.470;2023-05-07T10:57:50;23.60;99.90
27439;DHT22;14887;51.252;7.470;2023-05-07T11:05:31;24.30;99.90
27439;DHT22;14887;51.252;7.470;2023-05-07T11:07:59;24.60;99.90
27439;DHT22;14887;51.252;7.470;2023-05-07T11:13:48;25.00;99.90
27439;DHT22;14887;51.252;7.470;2023-05-07T11:16:21;24.80;99.90
27439;DHT22;14887;51.252;7.470;2023-05-07T11:21:35;24.00;99.90
27439;DHT22;14887;51.252;7.470;2023-05-07T11:24:02;23.30;99.90
27439;DHT22;14887;51.252;7.470;2023-05-07T11:26:29;22.70;99.90
27439;DHT22;14887;51.252;7.470;2023-05-07T11:28:57;22.30;99.90
27439;DHT22;14887;51.252;7.470;2023-05-07T11:31:27;22.00;99.90
27439;DHT22;14887;51.252;7.470;2023-05-07T11:33:54;21.70;99.90
27439;DHT22;14887;51.252;7.470;2023-05-07T11:36:22;21.70;99.90
27439;DHT22;14887;51.252;7.470;2023-05-07T11:38:50;21.80;99.90
27439;DHT22;14887;51.252;7.470;2023-05-07T11:41:16;21.80;99.90
27439;DHT22;14887;51.252;7.470;2023-05-07T11:43:59;21.90;99.90
27439;DHT22;14887;51.252;7.470;2023-05-07T11:46:26;22.10;1.00
27439;DHT22;14887;51.252;7.470;2023-05-07T11:48:51;22.10;99.90
27439;DHT22;14887;51.252;7.470;2023-05-07T11:51:22;22.10;99.90
27439;DHT22;14887;51.252;7.470;2023-05-07T11:53:48;22.20;99.90
27439;DHT22;14887;51.252;7.470;2023-05-07T11:56:17;22.40;99.90
27439;DHT22;14887;51.252;7.470;2023-05-07T11:58:44;22.30;99.90
27439;DHT22;14887;51.252;7.470;2023-05-07T12:01:11;22.30;99.90
27439;DHT22;14887;51.252;7.470;2023-05-07T12:03:40;22.60;99.90
27439;DHT22;14887;51.252;7.470;2023-05-07T12:06:10;22.80;99.90
27439;DHT22;14887;51.252;7.470;2023-05-07T12:08:38;22.70;99.90
27439;DHT22;14887;51.252;7.470;2023-05-07T12:11:07;22.60;99.90
27439;DHT22;14887;51.252;7.470;2023-05-07T12:13:33;22.40;99.90
27439;DHT22;14887;51.252;7.470;2023-05-07T12:15:59;22.10;99.90
27439;DHT22;14887;51.252;7.470;2023-05-07T12:18:25;22.10;99.90
27439;DHT22;14887;51.252;7.470;2023-05-07T12:20:52;21.90;99.90
27439;DHT22;14887;51.252;7.470;2023-05-07T12:23:17;21.90;1.00
27439;DHT22;14887;51.252;7.470;2023-05-07T12:25:44;21.70;99.90
27439;DHT22;14887;51.252;7.470;2023-05-07T12:28:16;21.80;1.00
27439;DHT22;14887;51.252;7.470;2023-05-07T12:30:43;21.80;1.00
27439;DHT22;14887;51.252;7.470;2023-05-07T12:33:09;21.50;1.00
27439;DHT22;14887;51.252;7.470;2023-05-07T12:35:42;21.50;1.00
27439;DHT22;14887;51.252;7.470;2023-05-07T12:38:12;21.40;1.00
27439;DHT22;14887;51.252;7.470;2023-05-07T12:40:39;21.30;38.80
27439;DHT22;14887;51.252;7.470;2023-05-07T12:43:05;21.10;99.90
27439;DHT22;14887;51.252;7.470;2023-05-07T12:45:31;21.10;1.00
27439;DHT22;14887;51.252;7.470;2023-05-07T12:48:01;21.20;1.00
27439;DHT22;14887;51.252;7.470;2023-05-07T12:50:31;21.20;99.90
27439;DHT22;14887;51.252;7.470;2023-05-07T12:52:58;21.30;99.90
27439;DHT22;14887;51.252;7.470;2023-05-07T12:55:24;21.30;99.90
27439;DHT22;14887;51.252;7.470;2023-05-07T12:57:50;21.20;99.90
27439;DHT22;14887;51.252;7.470;2023-05-07T13:00:17;21.30;99.90
27439;DHT22;14887;51.252;7.470;2023-05-07T13:02:44;21.70;99.90
27439;DHT22;14887;51.252;7.470;2023-05-07T13:05:10;21.90;99.90
27439;DHT22;14887;51.252;7.470;2023-05-07T13:07:35;22.30;58.80
27439;DHT22;14887;51.252;7.470;2023-05-07T13:10:02;22.50;61.00
27439;DHT22;14887;51.252;7.470;2023-05-07T13:12:28;22.60;37.00
27439;DHT22;14887;51.252;7.470;2023-05-07T13:14:53;22.50;99.90
27439;DHT22;14887;51.252;7.470;2023-05-07T13:17:19;22.50;99.90
27439;DHT22;14887;51.252;7.470;2023-05-07T13:19:44;22.80;99.90
27439;DHT22;14887;51.252;7.470;2023-05-07T13:22:10;23.30;99.90
27439;DHT22;14887;51.252;7.470;2023-05-07T13:24:36;24.10;1.00
27439;DHT22;14887;51.252;7.470;2023-05-07T13:27:02;26.00;1.00
27439;DHT22;14887;51.252;7.470;2023-05-07T13:29:28;27.50;99.90
27439;DHT22;14887;51.252;7.470;2023-05-07T13:31:56;27.90;99.90
27439;DHT22;14887;51.252;7.470;2023-05-07T13:34:22;26.50;99.90
27439;DHT22;14887;51.252;7.470;2023-05-07T13:36:47;25.40;99.90
27439;DHT22;14887;51.252;7.470;2023-05-07T13:39:13;24.50;1.00
27439;DHT22;14887;51.252;7.470;2023-05-07T13:41:39;23.90;99.90
27439;DHT22;14887;51.252;7.470;2023-05-07T13:44:05;23.80;99.90
27439;DHT22;14887;51.252;7.470;2023-05-07T13:46:30;23.70;99.90
27439;DHT22;14887;51.252;7.470;2023-05-07T13:48:56;23.80;99.90
27439;DHT22;14887;51.252;7.470;2023-05-07T13:51:22;23.80;99.90
27439;DHT22;14887;51.252;7.470;2023-05-07T13:53:47;23.70;99.90
27439;DHT22;14887;51.252;7.470;2023-05-07T13:56:13;23.70;99.90
27439;DHT22;14887;51.252;7.470;2023-05-07T13:58:40;23.30;99.90
27439;DHT22;14887;51.252;7.470;2023-05-07T14:01:05;23.10;1.00
27439;DHT22;14887;51.252;7.470;2023-05-07T14:03:31;23.20;1.00
27439;DHT22;14887;51.252;7.470;2023-05-07T14:05:58;23.00;1.00
27439;DHT22;14887;51.252;7.470;2023-05-07T14:08:25;22.60;1.00
27439;DHT22;14887;51.252;7.470;2023-05-07T14:10:51;22.40;1.00
27439;DHT22;14887;51.252;7.470;2023-05-07T14:13:17;22.00;1.00
27439;DHT22;14887;51.252;7.470;2023-05-07T14:15:42;21.40;1.00
27439;DHT22;14887;51.252;7.470;2023-05-07T14:18:12;20.90;1.00
27439;DHT22;14887;51.252;7.470;2023-05-07T14:20:38;20.60;1.00
27439;DHT22;14887;51.252;7.470;2023-05-07T14:23:03;20.30;99.90
27439;DHT22;14887;51.252;7.470;2023-05-07T14:25:29;20.10;99.90
27439;DHT22;14887;51.252;7.470;2023-05-07T14:27:55;20.20;1.00
27439;DHT22;14887;51.252;7.470;2023-05-07T14:30:20;20.10;1.00
27439;DHT22;14887;51.252;7.470;2023-05-07T14:32:49;20.00;1.00
27439;DHT22;14887;51.252;7.470;2023-05-07T14:35:15;20.00;1.00
27439;DHT22;14887;51.252;7.470;2023-05-07T14:37:41;19.90;1.00
27439;DHT22;14887;51.252;7.470;2023-05-07T14:40:07;19.90;1.00
27439;DHT22;14887;51.252;7.470;2023-05-07T14:42:32;19.70;1.00
27439;DHT22;14887;51.252;7.470;2023-05-07T14:44:58;19.60;1.00
27439;DHT22;14887;51.252;7.470;2023-05-07T14:47:23;19.40;1.00
27439;DHT22;14887;51.252;7.470;2023-05-07T14:49:49;19.50;1.00
27439;DHT22;14887;51.252;7.470;2023-05-07T14:52:15;19.50;99.90
27439;DHT22;14887;51.252;7.470;2023-05-07T14:54:40;19.20;65.70
27439;DHT22;14887;51.252;7.470;2023-05-07T14:57:08;19.10;99.90
27439;DHT22;14887;51.252;7.470;2023-05-07T14:59:34;19.00;99.90
27439;DHT22;14887;51.252;7.470;2023-05-07T15:02:00;18.90;1.00
27439;DHT22;14887;51.252;7.470;2023-05-07T15:04:26;18.60;1.00
27439;DHT22;14887;51.252;7.470;2023-05-07T15:06:51;18.20;1.00
27439;DHT22;14887;51.252;7.470;2023-05-07T15:09:19;17.90;99.90
27439;DHT22;14887;51.252;7.470;2023-05-07T15:11:44;17.70;1.00
27439;DHT22;14887;51.252;7.470;2023-05-07T15:14:10;17.40;5.30
27439;DHT22;14887;51.252;7.470;2023-05-07T15:16:35;17.40;99.90
27439;DHT22;14887;51.252;7.470;2023-05-07T15:19:01;17.20;99.90
27439;DHT22;14887;51.252;7.470;2023-05-07T15:21:27;17.10;1.00
27439;DHT22;14887;51.252;7.470;2023-05-07T15:23:52;16.90;1.00
27439;DHT22;14887;51.252;7.470;2023-05-07T15:26:18;16.90;99.90
27439;DHT22;14887;51.252;7.470;2023-05-07T15:28:44;16.90;30.70
27439;DHT22;14887;51.252;7.470;2023-05-07T15:31:09;16.80;99.90
27439;DHT22;14887;51.252;7.470;2023-05-07T15:33:35;16.80;68.20
27439;DHT22;14887;51.252;7.470;2023-05-07T15:36:00;16.80;99.90
27439;DHT22;14887;51.252;7.470;2023-05-07T15:38:27;16.70;1.00
27439;DHT22;14887;51.252;7.470;2023-05-07T15:40:52;16.70;99.90
27439;DHT22;14887;51.252;7.470;2023-05-07T15:43:18;16.80;99.90
27439;DHT22;14887;51.252;7.470;2023-05-07T15:45:44;16.70;99.90